createdAt,value
2023-01-21T00:00:50.450Z,97.23
2023-01-21T00:03:53.508Z,97.02
2023-01-21T00:06:57.042Z,97.19
2023-01-21T00:10:00.173Z,97.18
2023-01-21T00:13:02.841Z,97.15
2023-01-21T00:16:06.595Z,96.99
2023-01-21T00:19:09.456Z,97.20
2023-01-21T00:22:12.525Z,97.08
2023-01-21T00:25:15.298Z,96.89
2023-01-21T00:28:19.122Z,97.06
2023-01-21T00:31:21.897Z,97.18
2023-01-21T00:34:24.989Z,97.34
2023-01-21T00:37:27.705Z,97.78
2023-01-21T00:40:30.863Z,97.60
2023-01-21T00:43:34.073Z,97.74
2023-01-21T00:46:37.144Z,98.00
2023-01-21T00:49:39.922Z,98.47
2023-01-21T00:52:42.966Z,98.55
2023-01-21T00:55:45.805Z,98.26
2023-01-21T00:58:49.034Z,98.53
2023-01-21T01:01:51.869Z,98.35
2023-01-21T01:04:54.904Z,97.98
2023-01-21T01:07:57.612Z,98.38
2023-01-21T01:11:01.684Z,98.30
2023-01-21T01:14:04.649Z,98.20
2023-01-21T01:17:09.296Z,98.01
2023-01-21T01:20:12.583Z,97.75
2023-01-21T01:23:15.862Z,97.86
2023-01-21T01:26:20.121Z,97.90
2023-01-21T01:29:23.117Z,97.63
2023-01-21T01:32:25.884Z,97.73
2023-01-21T01:35:28.929Z,97.65
2023-01-21T01:38:31.802Z,97.46
2023-01-21T01:41:35.575Z,97.35
2023-01-21T01:44:57.989Z,97.08
2023-01-21T01:48:06.444Z,96.99
2023-01-21T01:51:09.763Z,96.93
2023-01-21T01:54:18.172Z,96.85
2023-01-21T01:57:25.700Z,96.69
2023-01-21T02:00:28.804Z,96.61
2023-01-21T02:03:46.408Z,96.69
2023-01-21T02:06:51.720Z,96.73
2023-01-21T02:09:55.950Z,96.67
2023-01-21T02:12:59.045Z,96.57
2023-01-21T02:16:13.847Z,96.75
2023-01-21T02:19:35.579Z,96.47
2023-01-21T02:22:40.984Z,96.49
2023-01-21T02:26:02.344Z,96.21
2023-01-21T02:29:18.474Z,96.09
2023-01-21T02:32:36.428Z,95.77
2023-01-21T02:35:50.882Z,95.64
2023-01-21T02:39:12.778Z,95.58
2023-01-21T02:42:34.120Z,95.23
2023-01-21T02:45:46.947Z,95.08
2023-01-21T02:49:23.814Z,95.19
2023-01-21T02:52:27.428Z,94.88
2023-01-21T02:55:36.079Z,94.84
2023-01-21T02:58:43.867Z,94.57
2023-01-21T03:02:01.737Z,94.38
2023-01-21T03:05:25.941Z,94.27
2023-01-21T03:08:38.832Z,94.33
2023-01-21T03:11:49.032Z,94.07
2023-01-21T03:15:36.532Z,94.02
2023-01-21T03:18:46.298Z,93.86
2023-01-21T03:21:50.797Z,93.71
2023-01-21T03:24:56.369Z,93.49
2023-01-21T03:28:02.770Z,93.30
2023-01-21T03:31:12.676Z,93.25
2023-01-21T03:34:18.693Z,93.05
2023-01-21T03:37:33.258Z,92.91
2023-01-21T03:40:53.563Z,92.88
2023-01-21T03:43:56.763Z,92.75
2023-01-21T03:47:08.078Z,92.88
2023-01-21T03:50:40.022Z,92.75
2023-01-21T03:53:43.774Z,92.46
2023-01-21T03:56:47.408Z,92.43
2023-01-21T03:59:50.132Z,92.33
2023-01-21T04:02:53.199Z,92.19
2023-01-21T04:05:56.356Z,92.13
2023-01-21T04:08:59.245Z,92.25
2023-01-21T04:12:02.324Z,91.99
2023-01-21T04:15:05.698Z,91.97
2023-01-21T04:18:08.845Z,91.74
2023-01-21T04:21:11.600Z,91.66
2023-01-21T04:24:14.588Z,91.45
2023-01-21T04:27:17.353Z,91.35
2023-01-21T04:30:20.413Z,90.93
2023-01-21T04:33:23.333Z,90.76
2023-01-21T04:36:26.397Z,90.45
2023-01-21T04:39:29.135Z,90.34
2023-01-21T04:42:32.166Z,89.94
2023-01-21T04:45:34.939Z,90.53
2023-01-21T04:48:38.072Z,90.77
2023-01-21T04:51:40.769Z,90.53
2023-01-21T04:54:43.810Z,90.10
2023-01-21T04:57:46.505Z,90.23
2023-01-21T05:00:49.630Z,90.13
2023-01-21T05:03:52.467Z,90.34
2023-01-21T05:06:55.956Z,90.78
2023-01-21T05:09:58.912Z,90.69
2023-01-21T05:13:02.112Z,90.85
2023-01-21T05:16:08.554Z,91.32
2023-01-21T05:19:11.911Z,91.31
2023-01-21T05:22:14.727Z,91.71
2023-01-21T05:25:17.761Z,91.81
2023-01-21T05:28:20.596Z,91.72
2023-01-21T05:31:25.264Z,92.48
2023-01-21T05:34:28.125Z,92.39
2023-01-21T05:37:31.080Z,92.68
2023-01-21T05:40:33.841Z,92.52
2023-01-21T05:43:37.044Z,92.42
2023-01-21T05:46:39.775Z,92.47
2023-01-21T05:49:42.814Z,92.43
2023-01-21T05:52:45.521Z,92.29
2023-01-21T05:55:52.518Z,92.47
2023-01-21T05:58:55.232Z,92.40
2023-01-21T06:01:58.290Z,92.51
2023-01-21T06:05:01.435Z,92.88
2023-01-21T06:08:04.310Z,92.62
2023-01-21T06:11:07.493Z,92.21
2023-01-21T06:14:10.354Z,92.21
2023-01-21T06:17:13.379Z,92.11
2023-01-21T06:20:16.525Z,92.09
2023-01-21T06:23:19.841Z,91.77
2023-01-21T06:26:22.540Z,91.50
2023-01-21T06:29:25.612Z,91.45
2023-01-21T06:32:28.619Z,91.25
2023-01-21T06:35:32.354Z,91.33
2023-01-21T06:38:36.372Z,91.59
2023-01-21T06:41:39.514Z,91.45
2023-01-21T06:44:42.267Z,91.54
2023-01-21T06:47:46.274Z,91.56
2023-01-21T06:50:48.949Z,91.66
2023-01-21T06:53:52.646Z,91.48
2023-01-21T06:56:55.388Z,91.69
2023-01-21T06:59:58.449Z,91.71
2023-01-21T07:03:01.958Z,91.83
2023-01-21T07:06:05.226Z,91.85
2023-01-21T07:09:08.636Z,91.43
2023-01-21T07:12:11.893Z,92.02
2023-01-21T07:15:14.882Z,92.10
2023-01-21T07:18:18.175Z,92.63
2023-01-21T07:21:20.953Z,92.46
2023-01-21T07:24:24.194Z,92.60
2023-01-21T07:27:26.867Z,92.31
2023-01-21T07:30:30.503Z,92.22
2023-01-21T07:33:33.375Z,92.04
2023-01-21T07:36:36.940Z,91.99
2023-01-21T07:39:39.597Z,92.10
2023-01-21T07:42:42.854Z,92.00
2023-01-21T07:45:46.049Z,91.77
2023-01-21T07:48:51.350Z,91.62
2023-01-21T07:51:57.802Z,91.37
2023-01-21T07:55:01.968Z,91.39
2023-01-21T07:58:04.820Z,90.96
2023-01-21T08:01:09.588Z,90.89
2023-01-21T08:04:12.679Z,90.46
2023-01-21T08:07:15.626Z,90.11
2023-01-21T08:10:19.869Z,90.20
2023-01-21T08:13:23.241Z,90.19
2023-01-21T08:16:26.956Z,89.79
2023-01-21T08:19:29.800Z,89.89
2023-01-21T08:22:33.136Z,89.89
2023-01-21T08:25:36.358Z,90.22
2023-01-21T08:28:40.124Z,89.86
2023-01-21T08:31:42.967Z,90.17
2023-01-21T08:34:46.150Z,89.74
2023-01-21T08:37:48.850Z,90.06
2023-01-21T08:40:51.925Z,90.12
2023-01-21T08:43:54.624Z,89.78
2023-01-21T08:46:57.817Z,90.08
2023-01-21T08:50:00.531Z,89.81
2023-01-21T08:53:03.629Z,89.73
2023-01-21T08:56:06.854Z,90.21
2023-01-21T08:59:11.155Z,90.19
2023-01-21T09:02:14.184Z,90.19
2023-01-21T09:05:17.848Z,90.02
2023-01-21T09:08:20.797Z,89.67
2023-01-21T09:11:24.747Z,89.50
2023-01-21T09:14:27.965Z,89.66
2023-01-21T09:17:31.092Z,89.75
2023-01-21T09:20:34.041Z,89.33
2023-01-21T09:23:38.801Z,89.62
2023-01-21T09:26:45.028Z,89.63
2023-01-21T09:29:48.095Z,89.61
2023-01-21T09:32:51.098Z,89.90
2023-01-21T09:35:58.709Z,89.90
2023-01-21T09:39:02.349Z,90.19
2023-01-21T09:42:05.436Z,90.64
2023-01-21T09:45:13.503Z,91.39
2023-01-21T09:48:30.824Z,91.25
2023-01-21T09:51:39.560Z,90.93
2023-01-21T09:54:42.895Z,91.50
2023-01-21T09:58:24.402Z,91.42
2023-01-21T10:01:33.943Z,91.55
2023-01-21T10:04:49.731Z,91.79
2023-01-21T10:08:21.903Z,91.62
2023-01-21T10:11:49.421Z,91.80
2023-01-21T10:15:18.625Z,91.90
2023-01-21T10:18:31.587Z,91.65
2023-01-21T10:21:50.678Z,91.35
2023-01-21T10:25:07.055Z,91.13
2023-01-21T10:28:19.817Z,91.14
2023-01-21T10:31:27.164Z,91.17
2023-01-21T10:34:32.125Z,90.83
2023-01-21T10:37:56.943Z,90.57
2023-01-21T10:41:29.903Z,89.97
2023-01-21T10:44:42.559Z,90.12
2023-01-21T10:47:56.497Z,89.69
2023-01-21T10:51:11.375Z,89.48
2023-01-21T10:54:26.943Z,88.98
2023-01-21T10:57:53.880Z,88.85
2023-01-21T11:01:01.038Z,88.89
2023-01-21T11:04:20.865Z,88.59
2023-01-21T11:07:25.136Z,88.88
2023-01-21T11:10:28.742Z,88.67
2023-01-21T11:13:31.647Z,88.27
2023-01-21T11:16:43.116Z,87.73
2023-01-21T11:19:59.784Z,88.65
2023-01-21T11:23:05.771Z,88.09
2023-01-21T11:26:28.430Z,88.19
2023-01-21T11:29:41.658Z,88.39
2023-01-21T11:32:44.325Z,88.48
2023-01-21T11:35:48.852Z,88.28
2023-01-21T11:39:04.339Z,88.52
2023-01-21T11:42:07.506Z,88.61
2023-01-21T11:45:39.310Z,88.88
2023-01-21T11:48:44.342Z,88.70
2023-01-21T11:51:47.643Z,88.60
2023-01-21T11:54:50.931Z,88.95
2023-01-21T11:57:56.494Z,89.39
2023-01-21T12:01:21.251Z,89.06
2023-01-21T12:04:25.863Z,88.95
2023-01-21T12:07:36.337Z,88.79
2023-01-21T12:10:46.948Z,89.30
2023-01-21T12:14:03.726Z,89.90
2023-01-21T12:17:45.943Z,89.99
2023-01-21T12:20:57.802Z,89.64
2023-01-21T12:24:28.782Z,89.97
2023-01-21T12:28:03.551Z,89.91
2023-01-21T12:31:37.438Z,89.78
2023-01-21T12:35:05.281Z,89.51
2023-01-21T12:38:13.675Z,89.75
2023-01-21T12:41:26.650Z,89.62
2023-01-21T12:44:32.982Z,89.25
2023-01-21T12:48:01.673Z,89.39
2023-01-21T12:51:10.252Z,89.70
2023-01-21T12:54:38.119Z,89.04
2023-01-21T12:57:59.220Z,89.05
2023-01-21T13:01:09.758Z,89.35
2023-01-21T13:04:49.632Z,89.01
2023-01-21T13:07:58.217Z,89.13
2023-01-21T13:11:13.536Z,89.53
2023-01-21T13:14:28.620Z,89.45
2023-01-21T13:17:39.362Z,89.15
2023-01-21T13:20:50.925Z,88.85
2023-01-21T13:24:19.928Z,88.91
2023-01-21T13:27:51.387Z,89.68
2023-01-21T13:30:57.409Z,89.00
2023-01-21T13:34:19.047Z,88.84
2023-01-21T13:37:43.002Z,88.28
2023-01-21T13:41:24.501Z,88.25
2023-01-21T13:45:01.440Z,88.41
2023-01-21T13:48:28.837Z,88.27
2023-01-21T13:51:45.366Z,88.71
2023-01-21T13:54:48.787Z,89.13
2023-01-21T13:58:09.397Z,90.32
2023-01-21T14:01:44.710Z,89.95
2023-01-21T14:04:58.966Z,89.67
2023-01-21T14:08:08.004Z,89.88
2023-01-21T14:11:36.940Z,90.52
2023-01-21T14:14:55.102Z,90.88
2023-01-21T14:18:17.118Z,90.22
2023-01-21T14:21:21.048Z,90.45
2023-01-21T14:25:02.632Z,90.61
2023-01-21T14:28:42.940Z,90.60
2023-01-21T14:32:08.397Z,91.20
2023-01-21T14:35:28.512Z,91.37
2023-01-21T14:39:07.413Z,91.45
2023-01-21T14:42:17.887Z,91.91
2023-01-21T14:45:25.282Z,91.83
2023-01-21T14:48:35.273Z,92.21
2023-01-21T14:51:44.995Z,92.64
2023-01-21T14:54:49.306Z,92.45
2023-01-21T14:57:53.580Z,92.63
2023-01-21T15:00:56.612Z,92.55
2023-01-21T15:04:08.759Z,92.44
2023-01-21T15:07:19.629Z,92.27
2023-01-21T15:10:34.522Z,92.10
2023-01-21T15:13:40.160Z,92.54
2023-01-21T15:16:45.584Z,92.61
2023-01-21T15:19:58.293Z,93.03
2023-01-21T15:23:30.281Z,92.88
2023-01-21T15:26:33.375Z,92.74
2023-01-21T15:29:39.032Z,93.33
2023-01-21T15:32:48.002Z,93.59
2023-01-21T15:36:30.632Z,93.45
2023-01-21T15:39:34.897Z,94.22
2023-01-21T15:43:05.790Z,93.82
2023-01-21T15:46:32.516Z,93.75
2023-01-21T15:50:16.366Z,93.22
2023-01-21T15:53:37.013Z,93.73
2023-01-21T15:56:46.149Z,93.50
2023-01-21T16:00:02.269Z,92.96
2023-01-21T16:03:11.610Z,92.52
2023-01-21T16:06:30.499Z,92.37
2023-01-21T16:09:58.425Z,92.00
2023-01-21T16:13:21.546Z,92.26
2023-01-21T16:16:47.781Z,92.40
2023-01-21T16:19:54.927Z,91.51
2023-01-21T16:23:02.464Z,90.89
2023-01-21T16:26:05.697Z,90.76
2023-01-21T16:29:13.587Z,90.75
2023-01-21T16:32:20.439Z,90.83
2023-01-21T16:35:23.457Z,90.66
2023-01-21T16:38:29.310Z,90.63
2023-01-21T16:41:33.003Z,90.74
2023-01-21T16:44:37.469Z,91.08
2023-01-21T16:47:42.997Z,91.18
2023-01-21T16:50:48.861Z,91.05
2023-01-21T16:54:20.504Z,90.87
2023-01-21T16:57:29.966Z,90.44
2023-01-21T17:00:33.455Z,90.58
2023-01-21T17:03:37.513Z,90.63
2023-01-21T17:06:42.154Z,90.85
2023-01-21T17:09:46.618Z,90.72
2023-01-21T17:12:57.003Z,90.69
2023-01-21T17:16:02.362Z,91.11
2023-01-21T17:19:09.743Z,91.33
2023-01-21T17:22:21.531Z,91.20
2023-01-21T17:25:25.807Z,90.96
2023-01-21T17:28:45.788Z,90.85
2023-01-21T17:32:07.312Z,90.57
2023-01-21T17:35:19.035Z,90.83
2023-01-21T17:38:30.729Z,90.82
2023-01-21T17:41:46.503Z,90.67
2023-01-21T17:44:54.489Z,91.73
2023-01-21T17:48:09.000Z,92.51
2023-01-21T17:51:21.310Z,92.85
2023-01-21T17:54:32.497Z,92.98
2023-01-21T17:57:36.720Z,93.20
2023-01-21T18:00:46.722Z,93.00
2023-01-21T18:03:50.697Z,92.69
2023-01-21T18:06:55.143Z,92.29
2023-01-21T18:10:03.068Z,92.32
2023-01-21T18:13:07.004Z,92.21
2023-01-21T18:16:12.026Z,91.98
2023-01-21T18:19:35.048Z,91.52
2023-01-21T18:22:38.621Z,91.18
2023-01-21T18:25:43.025Z,91.03
2023-01-21T18:28:46.282Z,91.22
2023-01-21T18:31:52.785Z,90.78
2023-01-21T18:34:56.715Z,90.43
2023-01-21T18:38:00.411Z,90.26
2023-01-21T18:41:04.577Z,90.25
2023-01-21T18:44:09.152Z,90.39
2023-01-21T18:47:18.335Z,90.06
2023-01-21T18:50:25.137Z,89.99
2023-01-21T18:53:28.685Z,90.27
2023-01-21T18:56:32.175Z,90.27
2023-01-21T18:59:35.781Z,90.27
2023-01-21T19:02:39.050Z,90.24
2023-01-21T19:05:45.249Z,90.04
2023-01-21T19:08:48.995Z,90.38
2023-01-21T19:11:52.764Z,90.96
2023-01-21T19:14:56.356Z,90.70
2023-01-21T19:18:00.113Z,90.33
2023-01-21T19:21:03.681Z,90.68
2023-01-21T19:24:09.793Z,90.66
2023-01-21T19:27:28.884Z,90.37
2023-01-21T19:30:33.647Z,90.52
2023-01-21T19:33:37.660Z,90.62
2023-01-21T19:36:42.269Z,90.46
2023-01-21T19:39:45.983Z,90.31
2023-01-21T19:42:50.995Z,90.44
2023-01-21T19:45:56.398Z,90.35
2023-01-21T19:49:05.442Z,90.25
2023-01-21T19:52:13.838Z,90.70
2023-01-21T19:55:23.006Z,90.80
2023-01-21T19:58:30.128Z,90.86
2023-01-21T20:01:35.128Z,90.85
2023-01-21T20:04:39.433Z,91.06
2023-01-21T20:07:44.249Z,91.97
2023-01-21T20:10:48.795Z,91.47
2023-01-21T20:13:52.681Z,91.22
2023-01-21T20:16:57.151Z,91.45
2023-01-21T20:20:01.077Z,91.20
2023-01-21T20:23:07.181Z,91.15
2023-01-21T20:26:18.311Z,90.98
2023-01-21T20:29:22.598Z,91.00
2023-01-21T20:32:26.929Z,91.15
2023-01-21T20:35:30.652Z,91.41
2023-01-21T20:38:36.354Z,91.50
2023-01-21T20:41:41.348Z,91.68
2023-01-21T20:44:44.828Z,91.63
2023-01-21T20:47:51.944Z,91.69
2023-01-21T20:50:56.633Z,92.07
2023-01-21T20:54:00.219Z,91.98
2023-01-21T20:57:04.381Z,91.88
2023-01-21T21:00:16.157Z,92.06
2023-01-21T21:03:19.836Z,92.44
2023-01-21T21:06:28.167Z,92.24
2023-01-21T21:09:36.729Z,92.43
2023-01-21T21:12:40.765Z,92.18
2023-01-21T21:15:46.411Z,92.42
2023-01-21T21:18:52.036Z,92.32
2023-01-21T21:21:55.399Z,92.41
2023-01-21T21:24:59.250Z,92.60
2023-01-21T21:28:02.717Z,92.22
2023-01-21T21:31:10.082Z,92.17
2023-01-21T21:34:13.464Z,92.23
2023-01-21T21:37:17.344Z,92.06
2023-01-21T21:40:22.057Z,92.72
2023-01-21T21:43:39.167Z,92.91
2023-01-21T21:47:00.861Z,92.58
2023-01-21T21:50:04.584Z,92.88
2023-01-21T21:53:08.357Z,92.75
2023-01-21T21:56:21.704Z,92.85
2023-01-21T21:59:25.170Z,92.41
2023-01-21T22:02:28.473Z,92.15
2023-01-21T22:05:35.632Z,92.12
2023-01-21T22:08:40.838Z,92.24
2023-01-21T22:11:44.098Z,92.18
2023-01-21T22:14:46.834Z,92.17
2023-01-21T22:17:50.058Z,92.15
2023-01-21T22:20:59.163Z,92.36
2023-01-21T22:24:04.058Z,92.17
2023-01-21T22:27:08.514Z,92.54
2023-01-21T22:30:12.930Z,92.30
2023-01-21T22:33:15.714Z,92.38
2023-01-21T22:36:24.317Z,92.31
2023-01-21T22:39:27.182Z,92.15
2023-01-21T22:42:30.971Z,92.12
2023-01-21T22:45:33.672Z,92.24
2023-01-21T22:48:36.843Z,92.19
2023-01-21T22:51:39.559Z,92.02
2023-01-21T22:54:42.617Z,92.01
2023-01-21T22:57:45.262Z,91.95
2023-01-21T23:00:48.794Z,91.84
2023-01-21T23:03:51.963Z,91.69
2023-01-21T23:06:55.209Z,92.17
2023-01-21T23:09:57.795Z,91.99
2023-01-21T23:13:00.796Z,91.80
2023-01-21T23:16:07.458Z,91.55
2023-01-21T23:19:10.938Z,91.67
2023-01-21T23:22:13.686Z,92.10
2023-01-21T23:25:16.805Z,91.98
2023-01-21T23:28:19.616Z,91.49
2023-01-21T23:31:24.019Z,91.57
2023-01-21T23:34:26.693Z,91.47
2023-01-21T23:37:29.687Z,91.38
2023-01-21T23:40:32.390Z,91.40
2023-01-21T23:43:36.282Z,91.42
2023-01-21T23:46:39.192Z,91.45
2023-01-21T23:49:42.263Z,91.44
2023-01-21T23:52:44.953Z,91.44
2023-01-21T23:55:48.019Z,91.17
2023-01-21T23:58:51.426Z,91.29
